createdAt,value
2023-04-30T00:05:11.370Z,5.32
2023-04-30T00:11:53.538Z,4.88
2023-04-30T00:18:35.811Z,4.32
2023-04-30T00:25:18.085Z,4.03
2023-04-30T00:32:00.287Z,3.80
2023-04-30T00:38:43.095Z,2.67
2023-04-30T00:45:26.394Z,2.40
2023-04-30T00:52:08.609Z,3.33
2023-04-30T00:58:54.349Z,3.22
2023-04-30T01:05:36.699Z,2.55
2023-04-30T01:12:38.735Z,3.05
2023-04-30T01:19:36.706Z,2.83
2023-04-30T01:26:52.782Z,2.85
2023-04-30T01:33:35.259Z,2.40
2023-04-30T01:40:37.743Z,1.80
2023-04-30T01:48:04.406Z,2.67
2023-04-30T01:55:05.314Z,3.08
2023-04-30T02:01:47.581Z,1.65
2023-04-30T02:08:29.878Z,1.55
2023-04-30T02:15:12.552Z,2.85
2023-04-30T02:21:56.486Z,1.30
2023-04-30T02:28:38.654Z,1.40
2023-04-30T02:35:21.028Z,1.45
2023-04-30T02:42:03.337Z,1.40
2023-04-30T02:48:45.842Z,1.40
2023-04-30T02:55:28.388Z,1.33
2023-04-30T03:02:10.957Z,6.03
2023-04-30T03:08:53.177Z,1.38
2023-04-30T03:15:35.670Z,1.83
2023-04-30T03:22:19.608Z,1.10
2023-04-30T03:29:02.178Z,1.30
2023-04-30T03:35:44.510Z,1.65
2023-04-30T03:42:26.679Z,1.50
2023-04-30T03:49:09.120Z,1.58
2023-04-30T03:55:51.518Z,1.52
2023-04-30T04:02:34.315Z,2.75
2023-04-30T04:09:17.049Z,2.47
2023-04-30T04:15:59.494Z,2.17
2023-04-30T04:22:41.842Z,1.67
2023-04-30T04:29:24.207Z,1.95
2023-04-30T04:36:07.000Z,1.30
2023-04-30T04:42:52.050Z,1.13
2023-04-30T04:49:34.185Z,1.45
2023-04-30T04:56:16.547Z,1.50
2023-04-30T05:02:59.425Z,1.40
2023-04-30T05:09:41.760Z,1.73
2023-04-30T05:16:24.031Z,1.90
2023-04-30T05:23:06.360Z,1.50
2023-04-30T05:29:48.473Z,1.80
2023-04-30T05:36:30.933Z,1.85
2023-04-30T05:43:13.101Z,1.92
2023-04-30T05:49:55.526Z,2.10
2023-04-30T05:56:37.912Z,2.38
2023-04-30T06:03:20.537Z,2.35
2023-04-30T06:10:03.806Z,1.60
2023-04-30T06:16:47.196Z,1.63
2023-04-30T06:23:29.479Z,1.50
2023-04-30T06:30:12.117Z,1.50
2023-04-30T06:36:54.292Z,1.33
2023-04-30T06:43:36.464Z,2.28
2023-04-30T06:50:18.964Z,1.48
2023-04-30T06:57:01.953Z,1.30
2023-04-30T07:03:44.464Z,1.30
2023-04-30T07:10:26.895Z,1.63
2023-04-30T07:17:09.078Z,1.00
2023-04-30T07:23:51.685Z,0.85
2023-04-30T07:30:34.273Z,1.00
2023-04-30T07:37:16.518Z,1.23
2023-04-30T07:43:59.837Z,0.80
2023-04-30T07:50:41.964Z,0.93
2023-04-30T07:57:26.714Z,1.42
2023-04-30T08:10:51.975Z,0.90
2023-04-30T08:17:35.311Z,0.80
2023-04-30T08:24:17.476Z,0.90
2023-04-30T08:30:59.816Z,0.80
2023-04-30T08:37:41.998Z,0.57
2023-04-30T08:44:25.729Z,0.85
2023-04-30T08:51:07.940Z,1.08
2023-04-30T08:57:50.142Z,1.20
2023-04-30T09:04:33.489Z,1.20
2023-04-30T09:11:26.953Z,1.50
2023-04-30T09:18:19.738Z,1.00
2023-04-30T09:25:02.088Z,1.10
2023-04-30T09:31:47.928Z,1.23
2023-04-30T09:38:33.473Z,1.85
2023-04-30T09:45:18.258Z,0.80
2023-04-30T09:58:48.489Z,0.90
2023-04-30T10:05:32.724Z,1.10
2023-04-30T10:12:18.124Z,1.00
2023-04-30T10:19:07.659Z,0.98
2023-04-30T10:25:51.434Z,1.02
2023-04-30T10:32:55.173Z,1.60
2023-04-30T10:39:38.610Z,1.60
2023-04-30T10:46:24.797Z,0.80
2023-04-30T10:53:07.235Z,1.00
2023-04-30T11:00:14.607Z,0.85
2023-04-30T11:07:08.107Z,0.95
2023-04-30T11:14:01.384Z,1.15
2023-04-30T11:20:51.860Z,0.70
2023-04-30T11:27:35.587Z,0.93
2023-04-30T11:34:18.130Z,0.83
2023-04-30T11:41:02.028Z,0.70
2023-04-30T11:47:49.756Z,0.80
2023-04-30T11:54:38.173Z,0.88
2023-04-30T12:01:21.649Z,1.00
2023-04-30T12:08:09.403Z,0.90
2023-04-30T12:14:51.616Z,0.98
2023-04-30T12:21:34.660Z,0.80
2023-04-30T12:28:16.922Z,1.00
2023-04-30T12:35:01.603Z,0.77
2023-04-30T12:41:50.378Z,1.15
2023-04-30T12:48:46.510Z,0.90
2023-04-30T12:55:29.629Z,0.90
2023-04-30T13:02:14.866Z,0.98
2023-04-30T13:08:58.980Z,0.80
2023-04-30T13:15:43.053Z,1.00
2023-04-30T13:22:30.642Z,0.98
2023-04-30T13:29:12.797Z,1.30
2023-04-30T13:35:54.912Z,1.30
2023-04-30T13:42:43.226Z,0.88
2023-04-30T13:49:25.500Z,0.95
2023-04-30T13:56:07.950Z,0.90
2023-04-30T14:02:50.235Z,1.00
2023-04-30T14:09:32.666Z,0.95
2023-04-30T14:16:14.932Z,1.10
2023-04-30T14:22:57.203Z,1.20
2023-04-30T14:29:39.391Z,1.13
2023-04-30T14:36:21.659Z,1.58
2023-04-30T14:43:03.835Z,0.90
2023-04-30T14:49:46.000Z,1.08
2023-04-30T14:56:28.204Z,1.25
2023-04-30T15:03:10.486Z,0.90
2023-04-30T15:09:53.244Z,0.95
2023-04-30T15:16:35.945Z,1.10
2023-04-30T15:23:18.312Z,1.17
2023-04-30T15:30:00.559Z,1.10
2023-04-30T15:36:42.872Z,1.02
2023-04-30T15:43:25.049Z,1.20
2023-04-30T15:50:08.471Z,1.45
2023-04-30T15:56:51.968Z,2.20
2023-04-30T16:03:34.326Z,1.10
2023-04-30T16:10:19.203Z,1.20
2023-04-30T16:23:43.731Z,1.08
2023-04-30T16:30:25.924Z,2.72
2023-04-30T16:37:09.122Z,1.38
2023-04-30T16:43:51.370Z,1.60
2023-04-30T16:50:33.688Z,2.95
2023-04-30T16:57:16.516Z,2.08
2023-04-30T17:03:58.778Z,1.30
2023-04-30T17:10:42.570Z,1.83
2023-04-30T17:17:24.783Z,1.45
2023-04-30T17:24:07.979Z,2.55
2023-04-30T17:30:50.537Z,1.63
2023-04-30T17:37:33.323Z,1.90
2023-04-30T17:44:19.483Z,1.90
2023-04-30T17:51:01.788Z,1.85
2023-04-30T18:04:29.136Z,2.70
2023-04-30T18:11:11.894Z,3.03
2023-04-30T18:17:54.287Z,2.83
2023-04-30T18:24:36.534Z,2.13
2023-04-30T18:31:19.035Z,1.35
2023-04-30T18:38:01.917Z,1.60
2023-04-30T18:44:44.071Z,1.70
2023-04-30T18:51:26.429Z,1.90
2023-04-30T18:58:09.183Z,1.48
2023-04-30T19:04:52.325Z,1.58
2023-04-30T19:11:38.001Z,2.08
2023-04-30T19:18:21.217Z,2.13
2023-04-30T19:25:04.107Z,2.50
2023-04-30T19:31:46.488Z,2.05
2023-04-30T19:38:28.903Z,4.35
2023-04-30T19:45:11.565Z,3.70
2023-04-30T19:51:54.894Z,3.90
2023-04-30T19:58:37.156Z,3.70
2023-04-30T20:05:19.392Z,2.83
2023-04-30T20:12:04.344Z,3.40
2023-04-30T20:18:46.690Z,4.15
2023-04-30T20:25:29.572Z,2.80
2023-04-30T20:32:11.812Z,2.95
2023-04-30T20:38:55.694Z,3.15
2023-04-30T20:45:38.381Z,2.58
2023-04-30T20:52:20.624Z,2.75
2023-04-30T20:59:04.845Z,3.13
2023-04-30T21:05:47.257Z,2.92
2023-04-30T21:12:29.704Z,10.10
2023-04-30T21:19:11.815Z,3.03
2023-04-30T21:25:57.062Z,2.88
2023-04-30T21:39:21.993Z,3.22
2023-04-30T21:46:04.287Z,2.90
2023-04-30T21:52:46.496Z,2.85
2023-04-30T21:59:28.996Z,2.95
2023-04-30T22:06:11.263Z,4.78
2023-04-30T22:12:53.700Z,3.97
2023-04-30T22:19:36.098Z,3.28
2023-04-30T22:26:18.308Z,4.47
2023-04-30T22:33:00.486Z,3.83
2023-04-30T22:39:43.025Z,3.13
2023-04-30T22:46:25.250Z,3.05
2023-04-30T22:53:07.561Z,3.42
2023-04-30T22:59:49.763Z,4.18
2023-04-30T23:06:32.577Z,2.88
2023-04-30T23:13:15.172Z,2.85
2023-04-30T23:19:57.844Z,3.78
2023-04-30T23:26:40.247Z,3.38
2023-04-30T23:33:22.466Z,3.65
2023-04-30T23:40:07.487Z,3.22
2023-04-30T23:46:51.099Z,3.10
2023-04-30T23:53:33.397Z,3.13
